Time;durP1;ratioP1;P1;durP2;ratioP2;P2;SDS_P1;SDS_P2;PMS_P1;PMS_P2;Temp;Humidity;BMP_temperature;BMP_pressure;BME280_temperature;BME280_humidity;BME280_pressure;Samples;Min_cycle;Max_cycle;Signal;HPM_P1;HPM_P2
2023/04/22 00:01:20;;;;;;;10.70;7.83;;;;;;;;;;5015183;28;20504;-44
2023/04/22 00:03:46;;;;;;;13.13;8.47;;;;;;;;;;5009846;28;20805;-44
2023/04/22 00:06:12;;;;;;;12.37;9.50;;;;;;;;;;5023443;28;20407;-44
2023/04/22 00:08:38;;;;;;;18.70;9.20;;;;;;;;;;5021372;28;20414;-44
2023/04/22 00:11:05;;;;;;;24.53;11.43;;;;;;;;;;5020845;28;20408;-44
2023/04/22 00:13:31;;;;;;;19.33;12.60;;;;;;;;;;5017462;28;20413;-44
2023/04/22 00:15:57;;;;;;;17.30;10.97;;;;;;;;;;5017847;28;20468;-44
2023/04/22 00:18:23;;;;;;;17.73;12.20;;;;;;;;;;5012134;28;20535;-44
2023/04/22 00:20:49;;;;;;;21.83;13.93;;;;;;;;;;5021918;28;20862;-44
2023/04/22 00:23:15;;;;;;;21.03;12.83;;;;;;;;;;5021297;28;20464;-44
2023/04/22 00:25:41;;;;;;;17.30;11.37;;;;;;;;;;5016505;28;20554;-43
2023/04/22 00:28:07;;;;;;;25.40;15.07;;;;;;;;;;5021460;28;20437;-44
2023/04/22 00:30:35;;;;;;;15.83;10.53;;;;;;;;;;5016301;28;20403;-44
2023/04/22 00:33:01;;;;;;;17.23;12.23;;;;;;;;;;5014779;28;20412;-45
2023/04/22 00:35:27;;;;;;;17.63;12.87;;;;;;;;;;5020021;28;20415;-44
2023/04/22 00:37:53;;;;;;;19.77;12.13;;;;;;;;;;5024457;28;20431;-43
2023/04/22 00:40:19;;;;;;;20.43;13.27;;;;;;;;;;5018559;28;20410;-44
2023/04/22 00:42:45;;;;;;;20.53;13.53;;;;;;;;;;5013337;28;20463;-44
2023/04/22 00:45:14;;;;;;;16.23;11.73;;;;;;;;;;5016461;28;20481;-44
2023/04/22 00:47:41;;;;;;;21.40;13.80;;;;;;;;;;5016432;28;20443;-45
2023/04/22 00:50:07;;;;;;;18.73;11.77;;;;;;;;;;5023370;28;20437;-44
2023/04/22 00:52:33;;;;;;;12.40;10.10;;;;;;;;;;5020813;28;20410;-44
2023/04/22 00:54:59;;;;;;;17.70;9.40;;;;;;;;;;5021688;28;20423;-44
2023/04/22 00:57:26;;;;;;;14.30;9.47;;;;;;;;;;5016362;28;20457;-44
2023/04/22 00:59:52;;;;;;;12.10;8.80;;;;;;;;;;5010121;28;20448;-44
2023/04/22 01:02:18;;;;;;;14.10;9.37;;;;;;;;;;5011955;28;20454;-43
2023/04/22 01:04:44;;;;;;;13.30;9.20;;;;;;;;;;5016095;28;20411;-44
2023/04/22 01:07:10;;;;;;;18.57;9.77;;;;;;;;;;5023078;28;20408;-44
2023/04/22 01:09:38;;;;;;;10.80;7.33;;;;;;;;;;5020236;28;20409;-43
2023/04/22 01:12:04;;;;;;;11.97;7.80;;;;;;;;;;5012948;28;20421;-44
2023/04/22 01:14:30;;;;;;;12.63;8.53;;;;;;;;;;5011592;28;20557;-44
2023/04/22 01:16:56;;;;;;;11.03;8.20;;;;;;;;;;5017753;28;20920;-45
2023/04/22 01:19:22;;;;;;;17.30;9.60;;;;;;;;;;5021483;28;20471;-45
2023/04/22 01:21:50;;;;;;;15.97;9.30;;;;;;;;;;5020801;28;20590;-45
2023/04/22 01:24:16;;;;;;;15.47;8.93;;;;;;;;;;5024223;28;20411;-44
2023/04/22 01:26:42;;;;;;;11.63;9.80;;;;;;;;;;5021327;28;20433;-44
2023/04/22 01:29:08;;;;;;;13.73;9.80;;;;;;;;;;5018537;28;20539;-44
2023/04/22 01:31:34;;;;;;;11.57;8.80;;;;;;;;;;5015637;28;20406;-44
2023/04/22 01:34:01;;;;;;;15.43;9.20;;;;;;;;;;5022778;28;20421;-44
2023/04/22 01:36:27;;;;;;;11.60;8.93;;;;;;;;;;5024501;28;20452;-44
2023/04/22 01:38:53;;;;;;;16.30;10.00;;;;;;;;;;5017751;28;20516;-44
2023/04/22 01:41:19;;;;;;;13.13;8.33;;;;;;;;;;5020154;28;20457;-44
2023/04/22 01:43:46;;;;;;;13.10;8.87;;;;;;;;;;5021026;28;20428;-44
2023/04/22 01:46:12;;;;;;;11.23;7.80;;;;;;;;;;5011298;28;20435;-44
2023/04/22 01:48:38;;;;;;;13.60;9.27;;;;;;;;;;5024303;28;20448;-44
2023/04/22 01:51:04;;;;;;;13.50;8.30;;;;;;;;;;5015292;28;20415;-44
2023/04/22 01:53:30;;;;;;;11.50;9.13;;;;;;;;;;5021674;28;20490;-44
2023/04/22 01:55:56;;;;;;;11.67;8.70;;;;;;;;;;5014857;28;20470;-44
2023/04/22 01:58:22;;;;;;;15.57;9.00;;;;;;;;;;5015913;28;20429;-44
2023/04/22 02:00:47;;;;;;;13.33;9.20;;;;;;;;;;5018877;28;20427;-44
2023/04/22 02:03:14;;;;;;;14.37;8.80;;;;;;;;;;5026640;28;20472;-45
2023/04/22 02:05:39;;;;;;;11.97;9.20;;;;;;;;;;5021345;28;20752;-44
2023/04/22 02:08:05;;;;;;;15.10;9.67;;;;;;;;;;5017115;28;20498;-45
2023/04/22 02:10:31;;;;;;;11.60;8.87;;;;;;;;;;5023616;28;20425;-44
2023/04/22 02:12:58;;;;;;;14.30;9.53;;;;;;;;;;5011211;28;20472;-45
2023/04/22 02:15:24;;;;;;;12.10;8.67;;;;;;;;;;5022523;28;20414;-45
2023/04/22 02:17:51;;;;;;;11.70;8.10;;;;;;;;;;5021281;28;20451;-45
2023/04/22 02:20:17;;;;;;;12.57;9.83;;;;;;;;;;5017477;28;20482;-44
2023/04/22 02:22:43;;;;;;;12.33;8.60;;;;;;;;;;5017693;28;20950;-44
2023/04/22 02:25:11;;;;;;;13.47;8.47;;;;;;;;;;5022742;28;20774;-45
2023/04/22 02:27:37;;;;;;;11.27;9.00;;;;;;;;;;5027105;28;20422;-44
2023/04/22 02:30:03;;;;;;;17.33;9.20;;;;;;;;;;5019192;28;20401;-44
2023/04/22 02:32:29;;;;;;;12.73;8.37;;;;;;;;;;5018672;28;20886;-45
2023/04/22 02:34:55;;;;;;;10.83;8.50;;;;;;;;;;5022609;28;20411;-44
2023/04/22 02:37:21;;;;;;;12.80;8.73;;;;;;;;;;5016746;28;20433;-44
2023/04/22 02:39:48;;;;;;;12.53;8.87;;;;;;;;;;5024147;28;20438;-44
2023/04/22 02:42:14;;;;;;;9.13;7.83;;;;;;;;;;5019467;28;20456;-45
2023/04/22 02:44:40;;;;;;;12.23;7.97;;;;;;;;;;5022346;28;20860;-45
2023/04/22 02:47:06;;;;;;;11.13;8.83;;;;;;;;;;5016293;28;20494;-44
2023/04/22 02:49:32;;;;;;;17.70;11.10;;;;;;;;;;5014210;28;20419;-44
2023/04/22 02:51:58;;;;;;;15.77;11.00;;;;;;;;;;5018958;28;20411;-45
2023/04/22 02:54:24;;;;;;;16.57;9.30;;;;;;;;;;5016952;28;20468;-45
2023/04/22 02:56:50;;;;;;;15.57;10.73;;;;;;;;;;5023491;28;20510;-45
2023/04/22 02:59:16;;;;;;;16.00;8.83;;;;;;;;;;5021931;28;20438;-45
2023/04/22 03:01:42;;;;;;;13.37;8.90;;;;;;;;;;5020643;28;20820;-45
2023/04/22 03:04:08;;;;;;;11.17;8.53;;;;;;;;;;5013176;28;20852;-45
2023/04/22 03:06:34;;;;;;;15.03;9.40;;;;;;;;;;5010907;28;20772;-46
2023/04/22 03:09:00;;;;;;;11.90;7.77;;;;;;;;;;5020482;28;20448;-45
2023/04/22 03:11:26;;;;;;;11.17;8.03;;;;;;;;;;5021793;28;20404;-44
2023/04/22 03:13:52;;;;;;;9.30;7.37;;;;;;;;;;5023594;28;20407;-45
2023/04/22 03:16:18;;;;;;;10.77;7.77;;;;;;;;;;5018642;28;20422;-44
2023/04/22 03:18:43;;;;;;;13.97;8.10;;;;;;;;;;5017657;28;20481;-45
2023/04/22 03:21:09;;;;;;;9.83;7.07;;;;;;;;;;5009895;28;20417;-45
2023/04/22 03:23:36;;;;;;;11.10;7.30;;;;;;;;;;5023595;28;20489;-45
2023/04/22 03:26:02;;;;;;;11.30;8.50;;;;;;;;;;5018579;28;20497;-45
2023/04/22 03:28:28;;;;;;;10.63;7.60;;;;;;;;;;5018075;28;20498;-45
2023/04/22 03:30:54;;;;;;;11.63;7.33;;;;;;;;;;5021610;28;20407;-45
2023/04/22 03:33:21;;;;;;;9.20;6.80;;;;;;;;;;5015684;28;20494;-45
2023/04/22 03:35:48;;;;;;;8.50;7.40;;;;;;;;;;5013600;28;20415;-44
2023/04/22 03:38:14;;;;;;;19.67;7.33;;;;;;;;;;5019575;28;20445;-46
2023/04/22 03:40:40;;;;;;;9.30;6.87;;;;;;;;;;5021988;28;20426;-45
2023/04/22 03:43:06;;;;;;;9.80;6.70;;;;;;;;;;5014925;28;20551;-44
2023/04/22 03:45:32;;;;;;;8.70;6.63;;;;;;;;;;5013811;28;20854;-45
2023/04/22 03:47:58;;;;;;;10.90;7.10;;;;;;;;;;5018011;28;20431;-45
2023/04/22 03:50:24;;;;;;;8.73;6.97;;;;;;;;;;5015687;28;20403;-44
2023/04/22 03:52:50;;;;;;;9.07;7.20;;;;;;;;;;5021263;28;20418;-44
2023/04/22 03:55:16;;;;;;;13.07;7.30;;;;;;;;;;5024762;28;20410;-44
2023/04/22 03:57:42;;;;;;;8.83;7.33;;;;;;;;;;5019286;28;20433;-47
2023/04/22 04:00:08;;;;;;;11.43;7.40;;;;;;;;;;5012266;28;20452;-45
2023/04/22 04:02:34;;;;;;;9.53;7.07;;;;;;;;;;5009669;28;20471;-45
2023/04/22 04:05:00;;;;;;;11.43;7.53;;;;;;;;;;5021936;28;20488;-45
2023/04/22 04:07:26;;;;;;;13.20;8.10;;;;;;;;;;5021511;28;20441;-45
2023/04/22 04:09:52;;;;;;;11.50;8.50;;;;;;;;;;5017849;28;20464;-46
2023/04/22 04:12:18;;;;;;;13.80;8.10;;;;;;;;;;5019817;28;20481;-46
2023/04/22 04:14:44;;;;;;;13.73;7.77;;;;;;;;;;5017132;28;20686;-46
2023/04/22 04:17:12;;;;;;;14.20;8.00;;;;;;;;;;5009125;28;20438;-44
2023/04/22 04:19:39;;;;;;;36.10;8.80;;;;;;;;;;5023850;28;20487;-45
2023/04/22 04:22:05;;;;;;;13.60;8.50;;;;;;;;;;5010342;28;20465;-44
2023/04/22 04:24:32;;;;;;;12.50;8.70;;;;;;;;;;5016684;28;20410;-47
2023/04/22 04:26:58;;;;;;;13.93;8.77;;;;;;;;;;5020967;28;20406;-46
2023/04/22 04:29:24;;;;;;;12.73;8.70;;;;;;;;;;5014901;28;20510;-46
2023/04/22 04:31:50;;;;;;;22.07;8.20;;;;;;;;;;5012970;28;20500;-45
2023/04/22 04:34:16;;;;;;;10.27;7.73;;;;;;;;;;5019187;28;20485;-46
2023/04/22 04:36:42;;;;;;;14.23;9.77;;;;;;;;;;5022691;28;20493;-45
2023/04/22 04:39:08;;;;;;;14.70;9.37;;;;;;;;;;5011010;28;20469;-44
2023/04/22 04:41:34;;;;;;;14.70;9.60;;;;;;;;;;5014760;28;20416;-44
2023/04/22 04:44:00;;;;;;;15.93;9.10;;;;;;;;;;5018061;28;20415;-44
2023/04/22 04:46:28;;;;;;;23.60;10.90;;;;;;;;;;5015253;28;20761;-44
2023/04/22 04:48:54;;;;;;;21.70;10.93;;;;;;;;;;5020681;28;20431;-45
2023/04/22 04:51:20;;;;;;;12.23;7.57;;;;;;;;;;5020481;28;20411;-45
2023/04/22 04:53:46;;;;;;;13.93;9.40;;;;;;;;;;5019272;28;20472;-45
2023/04/22 04:56:12;;;;;;;12.07;8.03;;;;;;;;;;5012500;28;20410;-45
2023/04/22 04:58:38;;;;;;;11.93;8.40;;;;;;;;;;5008029;28;20439;-44
2023/04/22 05:01:05;;;;;;;10.60;7.87;;;;;;;;;;5021296;28;20823;-46
2023/04/22 05:03:31;;;;;;;10.20;7.43;;;;;;;;;;5019969;28;20450;-45
2023/04/22 05:05:57;;;;;;;8.53;6.37;;;;;;;;;;5021510;28;20399;-45
2023/04/22 05:08:23;;;;;;;10.83;7.97;;;;;;;;;;5016331;28;20467;-46
2023/04/22 05:10:48;;;;;;;9.10;5.93;;;;;;;;;;5019556;28;20929;-46
2023/04/22 05:13:15;;;;;;;9.70;6.87;;;;;;;;;;5008546;28;20433;-44
2023/04/22 05:15:41;;;;;;;9.30;7.33;;;;;;;;;;5021491;28;20423;-45
2023/04/22 05:18:07;;;;;;;11.00;7.90;;;;;;;;;;5017143;28;20834;-44
2023/04/22 05:20:32;;;;;;;9.70;6.90;;;;;;;;;;5015636;28;20444;-44
2023/04/22 05:22:58;;;;;;;11.27;7.10;;;;;;;;;;5020037;28;20508;-44
2023/04/22 05:25:24;;;;;;;8.30;6.43;;;;;;;;;;5014094;28;20461;-44
2023/04/22 05:27:50;;;;;;;18.27;8.83;;;;;;;;;;5019393;28;20438;-45
2023/04/22 05:30:16;;;;;;;17.87;9.10;;;;;;;;;;5017968;28;20447;-44
2023/04/22 05:32:42;;;;;;;31.63;13.40;;;;;;;;;;5021888;28;20759;-45
2023/04/22 05:35:09;;;;;;;40.50;16.43;;;;;;;;;;5014137;28;20464;-46
2023/04/22 05:37:35;;;;;;;33.20;14.80;;;;;;;;;;5011680;28;20432;-46
2023/04/22 05:40:00;;;;;;;28.00;12.57;;;;;;;;;;5017112;28;20460;-44
2023/04/22 05:42:26;;;;;;;18.67;10.63;;;;;;;;;;5012910;28;20841;-44
2023/04/22 05:44:52;;;;;;;24.40;11.10;;;;;;;;;;5020441;28;20408;-44
2023/04/22 05:47:18;;;;;;;15.93;8.40;;;;;;;;;;5020307;28;20910;-44
2023/04/22 05:49:44;;;;;;;13.93;8.70;;;;;;;;;;5018931;28;20894;-44
2023/04/22 05:52:10;;;;;;;12.60;7.90;;;;;;;;;;5012161;28;20464;-45
2023/04/22 05:54:36;;;;;;;14.07;7.63;;;;;;;;;;5009703;28;20409;-44
2023/04/22 05:57:02;;;;;;;16.17;8.97;;;;;;;;;;5021869;28;20413;-44
2023/04/22 05:59:28;;;;;;;13.87;9.10;;;;;;;;;;5020341;28;20497;-45
2023/04/22 06:01:54;;;;;;;11.00;6.60;;;;;;;;;;5019085;28;20459;-44
2023/04/22 06:04:20;;;;;;;6.67;5.97;;;;;;;;;;5016876;28;20444;-44
2023/04/22 06:06:46;;;;;;;10.00;6.73;;;;;;;;;;5017653;28;20407;-44
2023/04/22 06:09:13;;;;;;;10.17;6.30;;;;;;;;;;5012565;28;20493;-44
2023/04/22 06:11:39;;;;;;;9.00;6.23;;;;;;;;;;5025482;28;20460;-44
2023/04/22 06:14:05;;;;;;;10.37;6.33;;;;;;;;;;5015496;28;20481;-46
2023/04/22 06:16:31;;;;;;;8.07;5.90;;;;;;;;;;5019900;28;20412;-44
2023/04/22 06:18:57;;;;;;;8.60;6.07;;;;;;;;;;5023603;28;20544;-46
2023/04/22 06:21:23;;;;;;;10.87;6.30;;;;;;;;;;5017354;28;20467;-44
2023/04/22 06:23:49;;;;;;;9.60;6.83;;;;;;;;;;5016078;28;20906;-44
2023/04/22 06:26:15;;;;;;;14.73;7.33;;;;;;;;;;5022817;28;20452;-44
2023/04/22 06:28:41;;;;;;;14.40;7.60;;;;;;;;;;5025448;28;20436;-44
2023/04/22 06:31:07;;;;;;;10.97;7.70;;;;;;;;;;5018306;28;20456;-45
2023/04/22 06:33:33;;;;;;;12.43;7.97;;;;;;;;;;5015966;28;20497;-45
2023/04/22 06:35:59;;;;;;;12.90;8.10;;;;;;;;;;5020640;28;20420;-46
2023/04/22 06:38:25;;;;;;;20.57;7.67;;;;;;;;;;5017258;28;20430;-44
2023/04/22 06:40:51;;;;;;;13.93;7.80;;;;;;;;;;5023215;28;20483;-44
2023/04/22 06:43:17;;;;;;;11.60;6.53;;;;;;;;;;5028734;28;20471;-44
2023/04/22 06:45:43;;;;;;;16.33;7.27;;;;;;;;;;5021167;28;20405;-44
2023/04/22 06:48:09;;;;;;;9.47;5.90;;;;;;;;;;5014639;28;20440;-45
2023/04/22 06:50:34;;;;;;;11.13;6.10;;;;;;;;;;5012406;28;20410;-44
2023/04/22 06:53:00;;;;;;;7.53;5.60;;;;;;;;;;5023971;28;20489;-45
2023/04/22 06:55:26;;;;;;;8.20;5.00;;;;;;;;;;5024001;28;20438;-44
2023/04/22 06:57:52;;;;;;;6.33;5.20;;;;;;;;;;5022398;28;20465;-46
2023/04/22 07:00:18;;;;;;;5.10;4.60;;;;;;;;;;5020022;28;20418;-44
2023/04/22 07:02:44;;;;;;;5.60;4.70;;;;;;;;;;5018703;28;20501;-44
2023/04/22 07:05:10;;;;;;;8.63;4.93;;;;;;;;;;5011792;28;20463;-44
2023/04/22 07:07:36;;;;;;;7.40;4.30;;;;;;;;;;5024569;28;20484;-44
2023/04/22 07:10:03;;;;;;;4.73;4.23;;;;;;;;;;5020446;28;20417;-44
2023/04/22 07:12:29;;;;;;;4.97;3.97;;;;;;;;;;5016584;28;20565;-45
2023/04/22 07:14:55;;;;;;;4.60;4.10;;;;;;;;;;5016819;28;20803;-45
2023/04/22 07:17:21;;;;;;;8.17;5.20;;;;;;;;;;5018036;28;20425;-45
2023/04/22 07:19:47;;;;;;;4.57;4.17;;;;;;;;;;5014483;28;20418;-44
2023/04/22 07:22:13;;;;;;;5.10;4.00;;;;;;;;;;5021541;28;20480;-47
2023/04/22 07:24:39;;;;;;;3.50;2.90;;;;;;;;;;5025090;28;20410;-46
2023/04/22 07:27:06;;;;;;;7.27;4.23;;;;;;;;;;5016268;28;20486;-48
2023/04/22 07:29:32;;;;;;;4.10;3.70;;;;;;;;;;5014370;28;20413;-47
2023/04/22 07:31:57;;;;;;;4.00;3.60;;;;;;;;;;5021532;28;20752;-47
2023/04/22 07:34:23;;;;;;;4.57;4.10;;;;;;;;;;5019782;28;20413;-47
2023/04/22 07:36:52;;;;;;;7.93;4.20;;;;;;;;;;5021925;28;20908;-46
2023/04/22 07:39:18;;;;;;;8.17;3.90;;;;;;;;;;5022521;28;20486;-47
2023/04/22 07:41:44;;;;;;;4.87;3.37;;;;;;;;;;5017346;28;20430;-47
2023/04/22 07:44:15;;;;;;;5.23;3.43;;;;;;;;;;5017642;28;20517;-47
2023/04/22 07:46:41;;;;;;;5.97;4.03;;;;;;;;;;5010241;28;20967;-47
2023/04/22 07:49:07;;;;;;;4.97;3.23;;;;;;;;;;5023904;28;20770;-48
2023/04/22 07:51:33;;;;;;;6.00;2.73;;;;;;;;;;5021824;28;20407;-46
2023/04/22 07:53:59;;;;;;;3.03;2.73;;;;;;;;;;5023476;28;20896;-48
2023/04/22 07:56:25;;;;;;;4.40;3.10;;;;;;;;;;5020160;28;20410;-48
2023/04/22 07:58:51;;;;;;;4.80;3.03;;;;;;;;;;5017865;28;20433;-48
2023/04/22 08:01:17;;;;;;;3.67;2.67;;;;;;;;;;5012044;28;20406;-47
2023/04/22 08:03:43;;;;;;;6.60;3.33;;;;;;;;;;5023056;28;20470;-45
2023/04/22 08:06:09;;;;;;;5.20;3.60;;;;;;;;;;5020744;28;20710;-48
2023/04/22 08:08:35;;;;;;;7.10;3.37;;;;;;;;;;5012818;28;20509;-48
2023/04/22 08:11:01;;;;;;;3.50;2.73;;;;;;;;;;5022818;28;20421;-47
2023/04/22 08:13:27;;;;;;;8.90;4.60;;;;;;;;;;5015933;28;20387;-46
2023/04/22 08:15:53;;;;;;;3.33;3.07;;;;;;;;;;5014790;28;20498;-47
2023/04/22 08:18:19;;;;;;;5.93;3.73;;;;;;;;;;5019803;28;20448;-47
2023/04/22 08:20:45;;;;;;;3.07;2.77;;;;;;;;;;5024764;28;20415;-47
2023/04/22 08:23:11;;;;;;;3.83;2.60;;;;;;;;;;5017570;28;20564;-47
2023/04/22 08:25:37;;;;;;;7.70;3.30;;;;;;;;;;5013697;28;20487;-46
2023/04/22 08:28:03;;;;;;;6.93;3.17;;;;;;;;;;5018967;28;20414;-47
2023/04/22 08:30:29;;;;;;;4.90;3.07;;;;;;;;;;5015791;28;20810;-46
2023/04/22 08:32:55;;;;;;;3.57;3.27;;;;;;;;;;5020564;28;20770;-48
2023/04/22 08:35:21;;;;;;;3.90;3.00;;;;;;;;;;5022092;28;20430;-48
2023/04/22 08:37:47;;;;;;;13.40;3.00;;;;;;;;;;5018607;28;20428;-47
2023/04/22 08:40:13;;;;;;;3.47;3.00;;;;;;;;;;5019639;28;20410;-48
2023/04/22 08:42:39;;;;;;;4.63;2.83;;;;;;;;;;5009746;28;20523;-44
2023/04/22 08:45:06;;;;;;;3.67;3.33;;;;;;;;;;5023254;28;20446;-47
2023/04/22 08:47:32;;;;;;;3.37;3.07;;;;;;;;;;5021369;28;20418;-47
2023/04/22 08:49:58;;;;;;;3.67;3.27;;;;;;;;;;5022188;28;20688;-47
2023/04/22 08:52:24;;;;;;;3.50;3.00;;;;;;;;;;5018350;28;20418;-47
2023/04/22 08:54:51;;;;;;;4.23;3.10;;;;;;;;;;5017712;28;20419;-47
2023/04/22 08:57:18;;;;;;;4.00;3.10;;;;;;;;;;5016369;28;20498;-45
2023/04/22 08:59:44;;;;;;;3.17;2.70;;;;;;;;;;5020512;28;20426;-46
2023/04/22 09:02:20;;;;;;;3.50;3.20;;;;;;;;;;5010291;28;20833;-46
2023/04/22 09:04:46;;;;;;;3.50;3.03;;;;;;;;;;5017539;28;20436;-45
2023/04/22 09:07:16;;;;;;;29.57;3.23;;;;;;;;;;5019957;28;20762;-48
2023/04/22 09:09:43;;;;;;;2.87;2.67;;;;;;;;;;5017366;28;20399;-47
2023/04/22 09:12:10;;;;;;;3.93;3.53;;;;;;;;;;5013648;28;20501;-48
2023/04/22 09:14:36;;;;;;;5.10;3.17;;;;;;;;;;5019753;28;20519;-48
2023/04/22 09:17:02;;;;;;;3.57;3.07;;;;;;;;;;5024310;28;20837;-47
2023/04/22 09:19:28;;;;;;;3.20;2.90;;;;;;;;;;5020048;28;20481;-43
2023/04/22 09:21:57;;;;;;;4.37;3.07;;;;;;;;;;5012838;28;20464;-43
2023/04/22 09:24:23;;;;;;;3.37;2.90;;;;;;;;;;5016807;28;20945;-43
2023/04/22 09:26:49;;;;;;;5.13;3.67;;;;;;;;;;5021011;28;20403;-44
2023/04/22 09:29:16;;;;;;;3.10;2.80;;;;;;;;;;5023134;28;20413;-44
2023/04/22 09:31:48;;;;;;;3.13;2.83;;;;;;;;;;5017252;28;20408;-43
2023/04/22 09:34:14;;;;;;;3.43;2.60;;;;;;;;;;5011650;28;20452;-45
2023/04/22 09:36:42;;;;;;;4.30;3.03;;;;;;;;;;4998214;28;20498;-46
2023/04/22 09:39:08;;;;;;;3.17;2.90;;;;;;;;;;4991515;28;20856;-44
2023/04/22 09:41:35;;;;;;;3.87;2.63;;;;;;;;;;5001208;28;20419;-44
2023/04/22 09:44:02;;;;;;;3.70;2.47;;;;;;;;;;5024674;28;20412;-44
2023/04/22 09:46:28;;;;;;;3.30;3.00;;;;;;;;;;5023026;28;20413;-43
2023/04/22 09:48:55;;;;;;;4.10;3.27;;;;;;;;;;5024064;28;20419;-44
2023/04/22 09:51:21;;;;;;;2.60;2.40;;;;;;;;;;5022051;28;20427;-45
2023/04/22 09:53:58;;;;;;;3.00;2.80;;;;;;;;;;5021420;28;20433;-45
2023/04/22 09:56:46;;;;;;;4.00;2.53;;;;;;;;;;5026929;28;20415;-44
2023/04/22 09:59:13;;;;;;;3.27;2.97;;;;;;;;;;5014596;28;20464;-45
2023/04/22 10:01:40;;;;;;;3.07;2.77;;;;;;;;;;5023161;28;20485;-45
2023/04/22 10:04:08;;;;;;;4.77;3.97;;;;;;;;;;5016231;28;20410;-46
2023/04/22 10:06:34;;;;;;;5.03;3.80;;;;;;;;;;5021558;28;20878;-45
2023/04/22 10:09:00;;;;;;;3.20;2.67;;;;;;;;;;5025070;28;20929;-44
2023/04/22 10:11:27;;;;;;;3.40;3.10;;;;;;;;;;5024538;28;20402;-47
2023/04/22 10:13:53;;;;;;;3.20;2.90;;;;;;;;;;5022073;28;20464;-46
2023/04/22 10:16:22;;;;;;;3.50;3.20;;;;;;;;;;5017462;28;20466;-45
2023/04/22 10:18:48;;;;;;;4.33;3.90;;;;;;;;;;5017856;28;20499;-43
2023/04/22 10:21:15;;;;;;;4.10;3.10;;;;;;;;;;5008192;28;20434;-43
2023/04/22 10:23:45;;;;;;;4.03;3.13;;;;;;;;;;5030755;28;20988;-44
2023/04/22 10:26:11;;;;;;;3.20;2.77;;;;;;;;;;5024035;28;20658;-43
2023/04/22 10:28:41;;;;;;;4.53;2.90;;;;;;;;;;5019572;28;20435;-43
2023/04/22 10:31:20;;;;;;;3.30;3.00;;;;;;;;;;5014280;28;20427;-43
2023/04/22 10:33:46;;;;;;;4.90;2.77;;;;;;;;;;5021439;28;20481;-45
2023/04/22 10:36:18;;;;;;;3.03;2.73;;;;;;;;;;5016425;28;20907;-45
2023/04/22 10:39:03;;;;;;;5.60;3.47;;;;;;;;;;5022869;28;20481;-44
2023/04/22 10:41:31;;;;;;;4.53;3.97;;;;;;;;;;5024614;28;20463;-43
2023/04/22 10:43:57;;;;;;;6.07;3.03;;;;;;;;;;5022801;28;20872;-46
2023/04/22 10:46:33;;;;;;;5.40;2.87;;;;;;;;;;5018748;28;20464;-44
2023/04/22 10:49:20;;;;;;;2.70;2.50;;;;;;;;;;5012258;28;20437;-43
2023/04/22 10:51:51;;;;;;;3.70;3.13;;;;;;;;;;5024537;28;20410;-44
2023/04/22 10:54:30;;;;;;;2.90;2.57;;;;;;;;;;5024177;28;20472;-47
2023/04/22 10:57:02;;;;;;;3.50;2.83;;;;;;;;;;5018282;28;20419;-43
2023/04/22 10:59:28;;;;;;;6.97;3.23;;;;;;;;;;5010445;28;20420;-46
2023/04/22 11:01:54;;;;;;;3.30;2.67;;;;;;;;;;4994275;28;20952;-44
2023/04/22 11:04:24;;;;;;;4.17;3.03;;;;;;;;;;4994361;28;20763;-46
2023/04/22 11:07:09;;;;;;;7.23;3.03;;;;;;;;;;5002673;28;20482;-45
2023/04/22 11:09:39;;;;;;;2.73;2.50;;;;;;;;;;4996369;28;20415;-44
2023/04/22 11:12:24;;;;;;;4.10;3.27;;;;;;;;;;4994168;28;20942;-44
2023/04/22 11:14:50;;;;;;;3.60;3.00;;;;;;;;;;4993882;28;20495;-44
2023/04/22 11:17:15;;;;;;;3.67;2.97;;;;;;;;;;4993888;28;20460;-44
2023/04/22 11:19:41;;;;;;;4.40;3.13;;;;;;;;;;4994803;28;20415;-45
2023/04/22 11:22:07;;;;;;;4.13;3.40;;;;;;;;;;5023683;28;20830;-43
2023/04/22 11:24:33;;;;;;;5.70;3.43;;;;;;;;;;5020268;28;20402;-43
2023/04/22 11:27:00;;;;;;;5.30;2.97;;;;;;;;;;5023852;28;20444;-43
2023/04/22 11:29:25;;;;;;;5.10;3.70;;;;;;;;;;5016839;28;20429;-43
2023/04/22 11:31:51;;;;;;;4.07;3.63;;;;;;;;;;5014390;28;20796;-43
2023/04/22 11:34:18;;;;;;;4.33;3.53;;;;;;;;;;5016083;28;20818;-44
2023/04/22 11:36:46;;;;;;;4.23;3.37;;;;;;;;;;5028286;28;20491;-43
2023/04/22 11:39:15;;;;;;;5.93;3.20;;;;;;;;;;5019596;28;20459;-43
2023/04/22 11:41:41;;;;;;;5.23;3.53;;;;;;;;;;5015303;28;20466;-45
2023/04/22 11:44:07;;;;;;;5.90;3.40;;;;;;;;;;5020543;28;20412;-44
2023/04/22 11:46:39;;;;;;;4.33;3.23;;;;;;;;;;5017256;28;20495;-43
2023/04/22 11:49:14;;;;;;;3.43;3.03;;;;;;;;;;5013307;28;20553;-43
2023/04/22 11:51:56;;;;;;;3.00;2.80;;;;;;;;;;5020008;28;20404;-42
2023/04/22 11:54:37;;;;;;;4.20;3.23;;;;;;;;;;5021109;28;20409;-44
2023/04/22 11:57:03;;;;;;;6.70;5.23;;;;;;;;;;5018770;28;20897;-43
2023/04/22 11:59:29;;;;;;;8.00;4.00;;;;;;;;;;5018987;28;20513;-43
2023/04/22 12:01:55;;;;;;;5.03;3.30;;;;;;;;;;5008406;28;20977;-43
2023/04/22 12:04:21;;;;;;;4.30;3.63;;;;;;;;;;5021704;28;20410;-45
2023/04/22 12:06:47;;;;;;;5.27;3.90;;;;;;;;;;5017153;28;20420;-43
2023/04/22 12:09:13;;;;;;;4.90;3.30;;;;;;;;;;5021715;28;20492;-44
2023/04/22 12:11:39;;;;;;;4.17;3.47;;;;;;;;;;5017642;28;20490;-47
2023/04/22 12:14:05;;;;;;;3.83;3.37;;;;;;;;;;5016256;28;20506;-45
2023/04/22 12:16:40;;;;;;;4.30;3.50;;;;;;;;;;5012297;28;20406;-46
2023/04/22 12:19:06;;;;;;;4.00;3.47;;;;;;;;;;5012630;28;20569;-46
2023/04/22 12:21:32;;;;;;;3.70;3.10;;;;;;;;;;5022068;28;20493;-43
2023/04/22 12:23:59;;;;;;;6.47;3.60;;;;;;;;;;5013043;28;20503;-43
2023/04/22 12:26:25;;;;;;;5.53;3.27;;;;;;;;;;5015489;28;20416;-44
2023/04/22 12:28:52;;;;;;;5.50;3.50;;;;;;;;;;5017509;28;20426;-43
2023/04/22 12:31:18;;;;;;;3.53;3.20;;;;;;;;;;5014363;28;20884;-43
2023/04/22 12:33:45;;;;;;;4.93;3.30;;;;;;;;;;5019953;28;20422;-43
2023/04/22 12:36:12;;;;;;;6.47;3.27;;;;;;;;;;5024579;28;20411;-44
2023/04/22 12:38:38;;;;;;;5.83;3.00;;;;;;;;;;5019133;28;20440;-43
2023/04/22 12:41:05;;;;;;;4.00;3.20;;;;;;;;;;5003539;28;20410;-43
2023/04/22 12:43:33;;;;;;;5.23;3.10;;;;;;;;;;5010154;28;20478;-43
2023/04/22 12:45:59;;;;;;;4.47;3.50;;;;;;;;;;5021310;28;20424;-43
2023/04/22 12:48:25;;;;;;;4.97;3.70;;;;;;;;;;5016931;28;20445;-43
2023/04/22 12:50:51;;;;;;;5.80;3.50;;;;;;;;;;5021585;28;20485;-43
2023/04/22 12:53:17;;;;;;;4.33;3.67;;;;;;;;;;5017622;28;20416;-43
2023/04/22 12:55:43;;;;;;;4.53;3.73;;;;;;;;;;5017661;28;20419;-43
2023/04/22 12:58:09;;;;;;;7.60;5.10;;;;;;;;;;5008526;28;20441;-43
2023/04/22 13:00:35;;;;;;;3.60;3.30;;;;;;;;;;5022398;28;20417;-43
2023/04/22 13:03:01;;;;;;;3.67;3.37;;;;;;;;;;5017782;28;20491;-43
2023/04/22 13:05:27;;;;;;;5.87;4.13;;;;;;;;;;5017777;28;20415;-46
2023/04/22 13:07:53;;;;;;;3.73;3.27;;;;;;;;;;5020461;28;20423;-47
2023/04/22 13:10:21;;;;;;;3.37;2.80;;;;;;;;;;5014010;28;20407;-43
2023/04/22 13:12:47;;;;;;;3.50;3.07;;;;;;;;;;5012750;28;20414;-43
2023/04/22 13:15:14;;;;;;;2.97;2.60;;;;;;;;;;5015967;28;20454;-43
2023/04/22 13:17:41;;;;;;;4.13;3.23;;;;;;;;;;5012947;28;20829;-44
2023/04/22 13:20:08;;;;;;;3.30;2.93;;;;;;;;;;5011207;28;20823;-43
2023/04/22 13:22:35;;;;;;;6.80;3.03;;;;;;;;;;5010123;28;20485;-43
2023/04/22 13:25:01;;;;;;;4.00;3.30;;;;;;;;;;5010066;28;20417;-44
2023/04/22 13:27:28;;;;;;;3.60;3.30;;;;;;;;;;5019625;28;20951;-43
2023/04/22 13:29:54;;;;;;;4.70;3.50;;;;;;;;;;5024986;28;20851;-43
2023/04/22 13:32:20;;;;;;;6.00;3.73;;;;;;;;;;5015891;28;20418;-43
2023/04/22 13:34:47;;;;;;;6.50;3.77;;;;;;;;;;5010045;28;20781;-43
2023/04/22 13:37:18;;;;;;;5.30;3.50;;;;;;;;;;5014283;28;20414;-43
2023/04/22 13:39:44;;;;;;;7.10;3.20;;;;;;;;;;5011751;28;20433;-44
2023/04/22 13:42:10;;;;;;;6.97;4.20;;;;;;;;;;5025317;28;20485;-45
2023/04/22 13:44:36;;;;;;;4.47;3.80;;;;;;;;;;5017114;28;20442;-43
2023/04/22 13:47:02;;;;;;;4.10;3.60;;;;;;;;;;5012745;28;20478;-44
2023/04/22 13:49:28;;;;;;;7.10;3.60;;;;;;;;;;5017496;28;20438;-44
2023/04/22 13:51:54;;;;;;;6.30;3.40;;;;;;;;;;5018687;28;20406;-43
2023/04/22 13:54:20;;;;;;;5.80;3.97;;;;;;;;;;5013127;28;20497;-44
2023/04/22 13:56:46;;;;;;;4.30;3.40;;;;;;;;;;5028947;28;20437;-43
2023/04/22 13:59:12;;;;;;;3.60;3.10;;;;;;;;;;5022082;28;20426;-44
2023/04/22 14:01:38;;;;;;;3.40;3.20;;;;;;;;;;5018273;28;20415;-43
2023/04/22 14:04:04;;;;;;;6.10;3.60;;;;;;;;;;5021361;28;20528;-45
2023/04/22 14:06:30;;;;;;;4.20;3.07;;;;;;;;;;5008326;28;20903;-43
2023/04/22 14:08:56;;;;;;;3.80;3.40;;;;;;;;;;5017004;28;20868;-44
2023/04/22 14:11:22;;;;;;;4.60;3.60;;;;;;;;;;5028320;28;20777;-44
2023/04/22 14:13:48;;;;;;;4.40;3.80;;;;;;;;;;5013300;28;20408;-46
2023/04/22 14:16:14;;;;;;;4.53;3.73;;;;;;;;;;5010204;28;20918;-42
2023/04/22 14:18:41;;;;;;;3.63;3.00;;;;;;;;;;5013112;28;20444;-46
2023/04/22 14:21:08;;;;;;;5.17;4.57;;;;;;;;;;5021093;28;20462;-46
2023/04/22 14:23:35;;;;;;;6.80;5.50;;;;;;;;;;5016648;28;20461;-43
2023/04/22 14:26:01;;;;;;;5.17;4.60;;;;;;;;;;5023597;28;20926;-42
2023/04/22 14:28:27;;;;;;;6.47;4.73;;;;;;;;;;5019983;28;20411;-43
2023/04/22 14:30:53;;;;;;;5.47;4.30;;;;;;;;;;5017860;28;20425;-42
2023/04/22 14:33:19;;;;;;;6.17;3.97;;;;;;;;;;5019672;28;20391;-42